createdAt,value
2022-12-12T00:01:29.957Z,51.13
2022-12-12T00:04:00.184Z,51.21
2022-12-12T00:06:29.653Z,51.19
2022-12-12T00:08:58.176Z,51.56
2022-12-12T00:11:28.347Z,51.38
2022-12-12T00:13:56.858Z,51.56
2022-12-12T00:16:26.262Z,51.53
2022-12-12T00:18:54.866Z,51.40
2022-12-12T00:21:28.460Z,51.54
2022-12-12T00:23:57.737Z,51.42
2022-12-12T00:26:29.600Z,51.35
2022-12-12T00:28:59.273Z,51.45
2022-12-12T00:31:27.937Z,51.42
2022-12-12T00:33:56.905Z,51.32
2022-12-12T00:36:30.101Z,51.52
2022-12-12T00:38:59.734Z,51.46
2022-12-12T00:41:28.491Z,51.51
2022-12-12T00:43:56.816Z,51.37
2022-12-12T00:46:27.004Z,51.39
2022-12-12T00:48:57.460Z,51.41
2022-12-12T00:51:29.297Z,51.59
2022-12-12T00:53:58.343Z,51.59
2022-12-12T00:56:29.191Z,51.55
2022-12-12T00:58:57.580Z,51.62
2022-12-12T01:01:29.980Z,51.59
2022-12-12T01:03:58.901Z,51.53
2022-12-12T01:06:29.535Z,51.65
2022-12-12T01:08:58.124Z,51.51
2022-12-12T01:11:27.209Z,51.61
2022-12-12T01:13:56.617Z,51.63
2022-12-12T01:16:25.979Z,51.79
2022-12-12T01:18:54.576Z,51.64
2022-12-12T01:21:24.311Z,51.58
2022-12-12T01:23:54.013Z,51.60
2022-12-12T01:26:25.499Z,51.50
2022-12-12T01:28:54.631Z,51.60
2022-12-12T01:31:23.287Z,51.58
2022-12-12T01:33:51.723Z,51.71
2022-12-12T01:36:23.489Z,51.51
2022-12-12T01:38:57.073Z,51.64
2022-12-12T01:41:26.172Z,51.49
2022-12-12T01:43:55.064Z,51.51
2022-12-12T01:46:41.071Z,51.68
2022-12-12T01:49:22.937Z,51.75
2022-12-12T01:51:54.132Z,51.80
2022-12-12T01:54:30.454Z,51.82
2022-12-12T01:57:02.806Z,51.79
2022-12-12T01:59:31.289Z,51.93
2022-12-12T02:01:59.690Z,51.98
2022-12-12T02:04:29.386Z,52.01
2022-12-12T02:06:58.458Z,51.88
2022-12-12T02:09:28.753Z,51.90
2022-12-12T02:11:58.822Z,52.00
2022-12-12T02:14:32.115Z,51.92
2022-12-12T02:17:29.424Z,51.90
2022-12-12T02:20:50.095Z,51.96
2022-12-12T02:24:31.300Z,52.14
2022-12-12T02:27:36.880Z,52.19
2022-12-12T02:30:17.596Z,52.25
2022-12-12T02:33:17.028Z,52.37
2022-12-12T02:35:58.155Z,52.25
2022-12-12T02:38:32.378Z,52.30
2022-12-12T02:41:15.391Z,52.38
2022-12-12T02:43:52.992Z,52.39
2022-12-12T02:46:28.313Z,52.34
2022-12-12T02:49:03.139Z,52.39
2022-12-12T02:51:33.320Z,52.23
2022-12-12T02:54:02.154Z,52.31
2022-12-12T02:56:58.789Z,52.21
2022-12-12T02:59:31.196Z,52.05
2022-12-12T03:02:48.198Z,52.05
2022-12-12T03:05:55.288Z,52.11
2022-12-12T03:08:41.170Z,52.03
2022-12-12T03:11:12.620Z,52.01
2022-12-12T03:13:51.157Z,51.97
2022-12-12T03:16:29.302Z,51.61
2022-12-12T03:19:05.645Z,51.77
2022-12-12T03:21:41.206Z,51.65
2022-12-12T03:24:16.155Z,51.72
2022-12-12T03:26:50.938Z,51.78
2022-12-12T03:29:23.953Z,51.72
2022-12-12T03:31:58.478Z,51.73
2022-12-12T03:34:32.073Z,51.65
2022-12-12T03:37:09.056Z,51.74
2022-12-12T03:39:45.057Z,51.51
2022-12-12T03:42:22.112Z,51.76
2022-12-12T03:44:56.842Z,51.58
2022-12-12T03:47:31.931Z,51.66
2022-12-12T03:50:06.163Z,51.72
2022-12-12T03:52:42.254Z,51.65
2022-12-12T03:55:17.943Z,51.62
2022-12-12T03:57:53.474Z,51.63
2022-12-12T04:00:22.061Z,51.93
2022-12-12T04:02:57.501Z,51.63
2022-12-12T04:05:33.813Z,51.71
2022-12-12T04:08:08.622Z,51.58
2022-12-12T04:11:02.994Z,51.64
2022-12-12T04:13:39.325Z,51.67
2022-12-12T04:16:11.641Z,51.44
2022-12-12T04:18:47.916Z,51.72
2022-12-12T04:21:44.845Z,51.63
2022-12-12T04:24:24.828Z,51.66
2022-12-12T04:27:00.367Z,51.62
2022-12-12T04:29:40.200Z,51.64
2022-12-12T04:32:16.316Z,51.63
2022-12-12T04:34:52.488Z,51.67
2022-12-12T04:37:25.335Z,51.62
2022-12-12T04:40:01.740Z,51.82
2022-12-12T04:42:35.752Z,51.79
2022-12-12T04:45:10.277Z,51.75
2022-12-12T04:47:40.969Z,51.70
2022-12-12T04:50:10.752Z,51.69
2022-12-12T04:52:41.201Z,51.73
2022-12-12T04:55:16.377Z,51.83
2022-12-12T04:57:48.732Z,51.84
2022-12-12T05:00:19.809Z,51.53
2022-12-12T05:02:56.423Z,51.96
2022-12-12T05:05:29.646Z,51.84
2022-12-12T05:08:04.293Z,51.74
2022-12-12T05:10:34.650Z,51.82
2022-12-12T05:13:02.920Z,51.73
2022-12-12T05:15:31.370Z,51.83
2022-12-12T05:18:04.772Z,51.86
2022-12-12T05:20:33.025Z,51.78
2022-12-12T05:23:01.424Z,51.73
2022-12-12T05:25:29.716Z,52.10
2022-12-12T05:27:59.587Z,51.83
2022-12-12T05:30:28.422Z,52.02
2022-12-12T05:32:56.760Z,51.88
2022-12-12T05:35:25.889Z,51.91
2022-12-12T05:37:54.190Z,51.99
2022-12-12T05:40:23.086Z,51.94
2022-12-12T05:42:51.511Z,51.90
2022-12-12T05:45:21.400Z,52.05
2022-12-12T05:47:49.838Z,52.04
2022-12-12T05:50:18.291Z,51.97
2022-12-12T05:52:46.634Z,51.80
2022-12-12T05:55:15.910Z,51.75
2022-12-12T05:57:44.336Z,52.02
2022-12-12T06:00:13.785Z,51.95
2022-12-12T06:02:43.496Z,52.03
2022-12-12T06:05:12.185Z,52.07
2022-12-12T06:07:40.887Z,51.78
2022-12-12T06:10:10.305Z,51.81
2022-12-12T06:12:38.641Z,51.68
2022-12-12T06:15:08.545Z,51.82
2022-12-12T06:17:36.956Z,51.92
2022-12-12T06:20:08.298Z,51.92
2022-12-12T06:22:37.050Z,52.01
2022-12-12T06:25:06.292Z,51.88
2022-12-12T06:27:34.572Z,51.80
2022-12-12T06:30:02.903Z,51.93
2022-12-12T06:32:31.161Z,51.93
2022-12-12T06:34:59.483Z,51.79
2022-12-12T06:37:29.183Z,51.70
2022-12-12T06:39:57.534Z,51.82
2022-12-12T06:42:25.815Z,51.79
2022-12-12T06:44:54.121Z,51.81
2022-12-12T06:47:22.401Z,52.07
2022-12-12T06:49:50.678Z,51.73
2022-12-12T06:52:18.960Z,51.98
2022-12-12T06:54:48.801Z,51.91
2022-12-12T06:57:17.059Z,51.64
2022-12-12T06:59:45.530Z,51.88
2022-12-12T07:02:13.970Z,52.05
2022-12-12T07:04:42.292Z,52.02
2022-12-12T07:07:10.640Z,52.23
2022-12-12T07:09:38.920Z,52.12
2022-12-12T07:12:08.736Z,52.08
2022-12-12T07:14:39.533Z,52.27
2022-12-12T07:17:08.225Z,52.24
2022-12-12T07:19:36.802Z,52.20
2022-12-12T07:22:09.813Z,52.31
2022-12-12T07:24:39.453Z,52.10
2022-12-12T07:27:09.095Z,52.31
2022-12-12T07:29:37.341Z,52.21
2022-12-12T07:32:06.171Z,52.20
2022-12-12T07:34:34.432Z,52.40
2022-12-12T07:37:03.470Z,52.38
2022-12-12T07:39:32.631Z,52.32
2022-12-12T07:42:01.334Z,52.29
2022-12-12T07:44:31.157Z,52.24
2022-12-12T07:46:59.897Z,52.37
2022-12-12T07:49:30.199Z,52.22
2022-12-12T07:51:58.527Z,52.41
2022-12-12T07:54:26.924Z,52.43
2022-12-12T07:56:55.216Z,52.25
2022-12-12T07:59:23.663Z,51.99
2022-12-12T08:01:53.496Z,51.74
2022-12-12T08:04:21.904Z,51.59
2022-12-12T08:06:54.118Z,51.45
2022-12-12T08:09:28.009Z,51.50
2022-12-12T08:11:57.051Z,51.45
2022-12-12T08:14:25.355Z,51.34
2022-12-12T08:16:55.310Z,51.51
2022-12-12T08:19:23.852Z,51.39
2022-12-12T08:21:52.136Z,51.27
2022-12-12T08:24:20.453Z,51.46
2022-12-12T08:26:51.434Z,51.33
2022-12-12T08:29:19.917Z,51.48
2022-12-12T08:31:48.388Z,51.35
2022-12-12T08:34:18.144Z,51.30
2022-12-12T08:36:47.432Z,51.32
2022-12-12T08:39:17.864Z,51.29
2022-12-12T08:41:48.549Z,51.38
2022-12-12T08:44:18.707Z,51.48
2022-12-12T08:46:48.102Z,51.47
2022-12-12T08:49:17.802Z,51.43
2022-12-12T08:51:46.235Z,51.45
2022-12-12T08:54:15.243Z,51.53
2022-12-12T08:56:43.570Z,51.64
2022-12-12T08:59:12.034Z,51.64
2022-12-12T09:01:41.179Z,51.72
2022-12-12T09:04:09.854Z,51.81
2022-12-12T09:06:39.640Z,51.98
2022-12-12T09:09:07.962Z,52.04
2022-12-12T09:11:36.349Z,51.44
2022-12-12T09:14:04.757Z,52.16
2022-12-12T09:16:33.160Z,52.20
2022-12-12T09:19:01.672Z,52.09
2022-12-12T09:21:29.981Z,52.22
2022-12-12T09:23:59.662Z,52.10
2022-12-12T09:26:27.943Z,51.66
2022-12-12T09:28:56.377Z,51.69
2022-12-12T09:31:24.755Z,51.51
2022-12-12T09:33:53.124Z,51.30
2022-12-12T09:36:21.500Z,51.58
2022-12-12T09:38:49.857Z,51.72
2022-12-12T09:41:22.497Z,52.21
2022-12-12T09:43:56.160Z,52.56
2022-12-12T09:46:37.546Z,52.73
2022-12-12T09:49:27.645Z,53.19
2022-12-12T09:51:58.741Z,53.06
2022-12-12T09:54:28.554Z,52.76
2022-12-12T09:57:15.599Z,52.96
2022-12-12T09:59:50.432Z,52.65
2022-12-12T10:02:52.072Z,52.41
2022-12-12T10:05:36.017Z,52.28
2022-12-12T10:08:16.957Z,51.87
2022-12-12T10:10:49.569Z,51.38
2022-12-12T10:13:23.753Z,51.27
2022-12-12T10:15:55.513Z,50.79
2022-12-12T10:18:30.030Z,50.79
2022-12-12T10:21:02.926Z,50.69
2022-12-12T10:23:38.983Z,50.22
2022-12-12T10:26:12.158Z,50.12
2022-12-12T10:28:41.905Z,50.18
2022-12-12T10:31:30.203Z,49.57
2022-12-12T10:34:15.530Z,49.37
2022-12-12T10:37:03.955Z,49.12
2022-12-12T10:39:44.406Z,48.97
2022-12-12T10:42:22.952Z,47.97
2022-12-12T10:45:23.787Z,47.13
2022-12-12T10:47:52.410Z,45.96
2022-12-12T10:50:33.634Z,45.07
2022-12-12T10:53:03.087Z,44.65
2022-12-12T10:55:42.289Z,44.28
2022-12-12T10:58:10.580Z,43.98
2022-12-12T11:00:43.929Z,44.39
2022-12-12T11:03:27.069Z,44.26
2022-12-12T11:05:56.811Z,44.42
2022-12-12T11:08:30.206Z,44.38
2022-12-12T11:11:09.165Z,44.48
2022-12-12T11:13:46.506Z,44.53
2022-12-12T11:16:19.709Z,44.84
2022-12-12T11:19:07.062Z,44.53
2022-12-12T11:21:37.277Z,44.71
2022-12-12T11:24:12.831Z,44.84
2022-12-12T11:26:47.204Z,45.11
2022-12-12T11:29:37.557Z,45.04
2022-12-12T11:32:14.677Z,45.24
2022-12-12T11:34:47.480Z,45.22
2022-12-12T11:37:18.774Z,44.95
2022-12-12T11:39:51.219Z,45.39
2022-12-12T11:42:25.521Z,44.99
2022-12-12T11:45:02.396Z,44.95
2022-12-12T11:47:40.827Z,45.14
2022-12-12T11:50:23.017Z,45.16
2022-12-12T11:52:53.442Z,45.34
2022-12-12T11:55:32.872Z,44.70
2022-12-12T11:58:17.413Z,45.31
2022-12-12T12:00:54.214Z,44.95
2022-12-12T12:03:32.157Z,45.23
2022-12-12T12:06:26.429Z,45.47
2022-12-12T12:09:25.741Z,45.05
2022-12-12T12:12:05.525Z,44.95
2022-12-12T12:14:56.731Z,44.82
2022-12-12T12:17:42.221Z,44.97
2022-12-12T12:20:24.537Z,45.13
2022-12-12T12:23:04.957Z,44.74
2022-12-12T12:25:44.666Z,44.68
2022-12-12T12:29:01.917Z,44.83
2022-12-12T12:31:42.636Z,45.04
2022-12-12T12:34:22.668Z,44.64
2022-12-12T12:37:09.311Z,44.57
2022-12-12T12:39:58.755Z,44.24
2022-12-12T12:42:49.262Z,44.39
2022-12-12T12:45:25.792Z,44.36
2022-12-12T12:47:59.823Z,44.38
2022-12-12T12:50:32.972Z,44.60
2022-12-12T12:53:08.621Z,44.49
2022-12-12T12:55:43.506Z,44.41
2022-12-12T12:58:20.316Z,44.57
2022-12-12T13:00:56.952Z,44.58
2022-12-12T13:03:33.137Z,44.43
2022-12-12T13:06:06.123Z,44.64
2022-12-12T13:08:55.978Z,44.39
2022-12-12T13:11:32.089Z,44.66
2022-12-12T13:14:12.967Z,44.43
2022-12-12T13:16:42.101Z,44.50
2022-12-12T13:19:16.545Z,44.26
2022-12-12T13:21:56.159Z,44.37
2022-12-12T13:24:33.656Z,44.37
2022-12-12T13:27:09.797Z,44.57
2022-12-12T13:29:47.525Z,44.85
2022-12-12T13:33:12.989Z,44.80
2022-12-12T13:35:46.084Z,44.72
2022-12-12T13:38:21.220Z,44.50
2022-12-12T13:40:58.719Z,44.60
2022-12-12T13:43:32.044Z,44.36
2022-12-12T13:46:41.539Z,44.51
2022-12-12T13:49:45.404Z,44.58
2022-12-12T13:52:30.036Z,44.69
2022-12-12T13:55:22.512Z,44.93
2022-12-12T13:58:19.355Z,44.94
2022-12-12T14:00:48.234Z,45.19
2022-12-12T14:03:30.602Z,44.99
2022-12-12T14:06:12.591Z,45.16
2022-12-12T14:08:49.811Z,44.94
2022-12-12T14:11:37.763Z,44.66
2022-12-12T14:14:20.347Z,44.90
2022-12-12T14:16:57.985Z,44.41
2022-12-12T14:19:31.216Z,44.41
2022-12-12T14:21:59.544Z,44.58
2022-12-12T14:25:05.832Z,44.48
2022-12-12T14:28:16.923Z,44.74
2022-12-12T14:30:53.345Z,44.53
2022-12-12T14:33:55.460Z,44.79
2022-12-12T14:37:09.892Z,44.61
2022-12-12T14:39:57.503Z,44.84
2022-12-12T14:43:16.421Z,44.80
2022-12-12T14:45:35.590Z,45.06
2022-12-12T14:48:20.499Z,45.13
2022-12-12T14:51:07.558Z,45.24
2022-12-12T14:53:46.451Z,45.17
2022-12-12T14:56:18.236Z,44.88
2022-12-12T14:58:50.601Z,44.89
2022-12-12T15:01:32.426Z,44.98
2022-12-12T15:04:05.670Z,45.03
2022-12-12T15:06:37.628Z,45.00
2022-12-12T15:09:19.537Z,45.08
2022-12-12T15:11:49.381Z,44.98
2022-12-12T15:14:24.695Z,44.72
2022-12-12T15:17:00.123Z,45.25
2022-12-12T15:19:32.753Z,45.08
2022-12-12T15:22:01.129Z,45.16
2022-12-12T15:24:37.789Z,45.01
2022-12-12T15:27:07.545Z,45.15
2022-12-12T15:29:38.831Z,45.02
2022-12-12T15:32:10.983Z,45.09
2022-12-12T15:34:43.971Z,45.30
2022-12-12T15:37:21.481Z,45.37
2022-12-12T15:40:06.243Z,45.46
2022-12-12T15:42:35.226Z,45.47
2022-12-12T15:45:05.188Z,45.54
2022-12-12T15:47:33.737Z,45.65
2022-12-12T15:50:13.706Z,46.08
2022-12-12T15:52:43.206Z,45.83
2022-12-12T15:55:22.296Z,45.89
2022-12-12T15:57:53.282Z,45.87
2022-12-12T16:00:40.504Z,45.87
2022-12-12T16:03:23.356Z,45.92
2022-12-12T16:06:06.941Z,46.36
2022-12-12T16:08:47.153Z,46.28
2022-12-12T16:11:45.387Z,46.31
2022-12-12T16:14:40.332Z,46.67
2022-12-12T16:17:14.159Z,46.42
2022-12-12T16:22:39.534Z,46.72
2022-12-12T16:25:19.738Z,46.69
2022-12-12T16:27:52.066Z,46.87
2022-12-12T16:30:20.457Z,46.82
2022-12-12T16:32:48.715Z,46.79
2022-12-12T16:35:19.903Z,46.76
2022-12-12T16:37:50.296Z,46.69
2022-12-12T16:40:20.961Z,46.94
2022-12-12T16:42:56.322Z,46.84
2022-12-12T16:45:24.841Z,47.04
2022-12-12T16:47:53.163Z,46.84
2022-12-12T16:50:21.383Z,46.75
2022-12-12T16:52:51.007Z,46.69
2022-12-12T16:55:24.238Z,46.39
2022-12-12T16:57:52.499Z,46.63
2022-12-12T17:00:21.188Z,46.75
2022-12-12T17:02:49.413Z,46.65
2022-12-12T17:05:23.383Z,46.66
2022-12-12T17:07:54.176Z,46.70
2022-12-12T17:10:25.514Z,46.82
2022-12-12T17:12:55.177Z,46.46
2022-12-12T17:15:26.962Z,46.82
2022-12-12T17:17:55.439Z,46.67
2022-12-12T17:20:24.869Z,46.68
2022-12-12T17:22:55.503Z,46.89
2022-12-12T17:25:24.410Z,46.86
2022-12-12T17:27:53.847Z,46.67
2022-12-12T17:30:23.019Z,47.08
2022-12-12T17:35:37.045Z,46.78
2022-12-12T17:38:10.231Z,47.04
2022-12-12T17:40:44.211Z,46.96
2022-12-12T17:43:12.498Z,46.89
2022-12-12T17:45:40.799Z,46.88
2022-12-12T17:48:09.064Z,46.46
2022-12-12T17:50:41.784Z,46.96
2022-12-12T17:53:11.785Z,47.02
2022-12-12T17:55:55.238Z,47.06
2022-12-12T17:58:29.541Z,46.90
2022-12-12T18:00:58.221Z,46.94
2022-12-12T18:03:26.681Z,46.78
2022-12-12T18:05:55.007Z,46.80
2022-12-12T18:08:24.750Z,46.54
2022-12-12T18:10:53.040Z,46.50
2022-12-12T18:13:21.345Z,46.85
2022-12-12T18:15:56.037Z,46.62
2022-12-12T18:18:24.643Z,46.37
2022-12-12T18:20:53.141Z,46.58
2022-12-12T18:23:21.409Z,46.80
2022-12-12T18:25:51.101Z,46.60
2022-12-12T18:28:19.464Z,46.78
2022-12-12T18:30:50.244Z,46.54
2022-12-12T18:33:18.691Z,46.74
2022-12-12T18:35:47.093Z,46.74
2022-12-12T18:38:16.786Z,46.43
2022-12-12T18:40:45.167Z,46.93
2022-12-12T18:43:14.880Z,46.91
2022-12-12T18:45:43.252Z,46.81
2022-12-12T18:48:11.594Z,46.58
2022-12-12T18:50:39.930Z,46.52
2022-12-12T18:53:08.634Z,46.71
2022-12-12T18:55:41.624Z,46.68
2022-12-12T18:58:11.050Z,46.52
2022-12-12T19:00:41.097Z,46.65
2022-12-12T19:03:10.072Z,46.63
2022-12-12T19:05:42.353Z,46.91
2022-12-12T19:08:11.982Z,46.80
2022-12-12T19:10:40.899Z,46.63
2022-12-12T19:13:09.230Z,46.54
2022-12-12T19:15:37.520Z,46.53
2022-12-12T19:18:07.496Z,46.72
2022-12-12T19:20:37.029Z,47.13
2022-12-12T19:23:06.572Z,46.59
2022-12-12T19:25:42.327Z,46.86
2022-12-12T19:28:12.380Z,46.74
2022-12-12T19:30:41.658Z,46.66
2022-12-12T19:33:11.482Z,46.67
2022-12-12T19:35:39.822Z,47.55
2022-12-12T19:38:08.172Z,47.31
2022-12-12T19:40:36.494Z,46.92
2022-12-12T19:43:04.912Z,46.98
2022-12-12T19:45:33.259Z,47.21
2022-12-12T19:48:01.704Z,47.04
2022-12-12T19:50:31.392Z,47.36
2022-12-12T19:53:00.115Z,47.63
2022-12-12T19:55:28.453Z,47.68
2022-12-12T19:57:56.804Z,47.12
2022-12-12T20:00:26.025Z,47.49
2022-12-12T20:02:54.505Z,47.72
2022-12-12T20:05:22.891Z,47.03
2022-12-12T20:07:52.637Z,47.76
2022-12-12T20:10:20.968Z,47.38
2022-12-12T20:12:56.333Z,47.19
2022-12-12T20:15:27.108Z,47.51
2022-12-12T20:17:56.344Z,47.67
2022-12-12T20:20:24.704Z,47.03
2022-12-12T20:22:54.445Z,47.13
2022-12-12T20:25:22.753Z,47.59
2022-12-12T20:27:51.057Z,46.96
2022-12-12T20:30:19.522Z,47.13
2022-12-12T20:32:47.941Z,47.45
2022-12-12T20:35:16.394Z,46.97
2022-12-12T20:37:44.724Z,47.62
2022-12-12T20:40:15.087Z,46.91
2022-12-12T20:42:46.303Z,47.34
2022-12-12T20:45:18.807Z,47.24
2022-12-12T20:47:47.139Z,47.77
2022-12-12T20:50:15.598Z,47.50
2022-12-12T20:52:43.922Z,46.94
2022-12-12T20:55:14.048Z,47.09
2022-12-12T20:57:43.030Z,47.12
2022-12-12T21:00:13.350Z,47.67
2022-12-12T21:02:41.777Z,47.43
2022-12-12T21:05:11.090Z,47.74
2022-12-12T21:07:39.606Z,47.52
2022-12-12T21:10:08.736Z,47.41
2022-12-12T21:12:38.478Z,47.43
2022-12-12T21:15:07.939Z,47.83
2022-12-12T21:17:36.267Z,47.79
2022-12-12T21:20:06.820Z,47.40
2022-12-12T21:22:35.829Z,47.77
2022-12-12T21:25:04.155Z,47.43
2022-12-12T21:27:33.195Z,48.04
2022-12-12T21:30:02.890Z,47.46
2022-12-12T21:32:31.217Z,48.18
2022-12-12T21:34:59.553Z,48.11
2022-12-12T21:37:27.886Z,47.87
2022-12-12T21:39:56.197Z,47.49
2022-12-12T21:42:24.481Z,47.54
2022-12-12T21:44:52.787Z,47.91
2022-12-12T21:47:22.416Z,47.38
2022-12-12T21:49:50.733Z,47.96
2022-12-12T21:52:19.067Z,48.02
2022-12-12T21:54:47.340Z,47.92
2022-12-12T21:57:16.040Z,48.13
2022-12-12T21:59:45.312Z,47.77
2022-12-12T22:02:14.593Z,47.63
2022-12-12T22:04:44.254Z,47.32
2022-12-12T22:07:12.923Z,48.11
2022-12-12T22:09:42.227Z,47.67
2022-12-12T22:12:10.573Z,47.57
2022-12-12T22:14:38.971Z,47.70
2022-12-12T22:17:07.536Z,47.64
2022-12-12T22:19:35.858Z,48.09
2022-12-12T22:22:05.513Z,47.45
2022-12-12T22:24:33.982Z,47.86
2022-12-12T22:27:02.435Z,48.09
2022-12-12T22:29:30.667Z,48.34
2022-12-12T22:31:58.928Z,47.55
2022-12-12T22:34:27.303Z,47.95
2022-12-12T22:36:55.877Z,48.02
2022-12-12T22:39:28.176Z,47.94
2022-12-12T22:41:57.317Z,48.11
2022-12-12T22:44:27.088Z,47.28
2022-12-12T22:46:56.339Z,47.62
2022-12-12T22:49:27.048Z,47.96
2022-12-12T22:51:57.905Z,48.24
2022-12-12T22:54:28.253Z,47.70
2022-12-12T22:56:56.522Z,48.19
2022-12-12T22:59:24.856Z,47.69
2022-12-12T23:01:53.152Z,48.02
2022-12-12T23:04:21.567Z,48.15
2022-12-12T23:06:49.841Z,47.98
2022-12-12T23:09:20.455Z,47.96
2022-12-12T23:11:50.137Z,47.79
2022-12-12T23:14:21.802Z,47.98
2022-12-12T23:16:51.113Z,47.52
2022-12-12T23:19:23.416Z,47.69
2022-12-12T23:21:51.865Z,47.60
2022-12-12T23:24:20.184Z,47.71
2022-12-12T23:26:52.020Z,48.14
2022-12-12T23:29:21.088Z,47.97
2022-12-12T23:31:49.798Z,47.82
2022-12-12T23:34:22.814Z,48.09
2022-12-12T23:36:51.745Z,47.88
2022-12-12T23:39:20.131Z,47.87
2022-12-12T23:41:49.789Z,47.63
2022-12-12T23:44:20.536Z,47.40
2022-12-12T23:46:49.725Z,47.63
2022-12-12T23:49:21.051Z,47.69
2022-12-12T23:51:51.524Z,48.05
2022-12-12T23:54:22.719Z,47.46
2022-12-12T23:56:52.921Z,48.08
2022-12-12T23:59:22.848Z,47.91
